sensor_id;sensor_type;location;lat;lon;timestamp;temperature;humidity
44537;DHT22;30245;51.966;6.292;2022-10-16T00:01:25;18.60;62.40
44537;DHT22;30245;51.966;6.292;2022-10-16T00:03:51;18.50;62.50
44537;DHT22;30245;51.966;6.292;2022-10-16T00:06:19;18.50;62.60
44537;DHT22;30245;51.966;6.292;2022-10-16T00:08:45;18.50;62.60
44537;DHT22;30245;51.966;6.292;2022-10-16T00:11:20;18.40;62.70
44537;DHT22;30245;51.966;6.292;2022-10-16T00:13:49;18.40;62.90
44537;DHT22;30245;51.966;6.292;2022-10-16T00:16:15;18.40;63.00
44537;DHT22;30245;51.966;6.292;2022-10-16T00:18:41;18.40;62.90
44537;DHT22;30245;51.966;6.292;2022-10-16T00:23:35;18.40;63.00
44537;DHT22;30245;51.966;6.292;2022-10-16T00:26:03;18.40;63.10
44537;DHT22;30245;51.966;6.292;2022-10-16T00:28:30;18.40;63.20
44537;DHT22;30245;51.966;6.292;2022-10-16T00:30:55;18.40;63.30
44537;DHT22;30245;51.966;6.292;2022-10-16T00:33:21;18.40;63.40
44537;DHT22;30245;51.966;6.292;2022-10-16T00:35:47;18.40;63.30
44537;DHT22;30245;51.966;6.292;2022-10-16T00:38:13;18.40;63.30
44537;DHT22;30245;51.966;6.292;2022-10-16T00:40:39;18.40;63.50
44537;DHT22;30245;51.966;6.292;2022-10-16T00:43:37;18.30;63.60
44537;DHT22;30245;51.966;6.292;2022-10-16T00:46:04;18.30;63.70
44537;DHT22;30245;51.966;6.292;2022-10-16T00:48:30;18.30;63.60
44537;DHT22;30245;51.966;6.292;2022-10-16T00:50:57;18.30;63.50
44537;DHT22;30245;51.966;6.292;2022-10-16T00:53:24;18.30;63.60
44537;DHT22;30245;51.966;6.292;2022-10-16T00:55:51;18.20;63.70
44537;DHT22;30245;51.966;6.292;2022-10-16T00:58:16;18.20;63.80
44537;DHT22;30245;51.966;6.292;2022-10-16T01:00:42;18.20;63.90
44537;DHT22;30245;51.966;6.292;2022-10-16T01:03:32;18.10;64.20
44537;DHT22;30245;51.966;6.292;2022-10-16T01:08:55;18.10;64.30
44537;DHT22;30245;51.966;6.292;2022-10-16T01:11:33;18.10;64.50
44537;DHT22;30245;51.966;6.292;2022-10-16T01:14:09;18.10;64.60
44537;DHT22;30245;51.966;6.292;2022-10-16T01:16:45;18.10;64.60
44537;DHT22;30245;51.966;6.292;2022-10-16T01:19:50;18.10;64.70
44537;DHT22;30245;51.966;6.292;2022-10-16T01:22:20;18.10;64.80
44537;DHT22;30245;51.966;6.292;2022-10-16T01:24:49;18.20;64.70
44537;DHT22;30245;51.966;6.292;2022-10-16T01:27:22;18.20;64.70
44537;DHT22;30245;51.966;6.292;2022-10-16T01:35:04;18.10;65.00
44537;DHT22;30245;51.966;6.292;2022-10-16T01:37:35;18.10;65.40
44537;DHT22;30245;51.966;6.292;2022-10-16T01:40:05;18.10;65.60
44537;DHT22;30245;51.966;6.292;2022-10-16T01:42:35;18.10;65.60
44537;DHT22;30245;51.966;6.292;2022-10-16T01:45:05;18.10;65.50
44537;DHT22;30245;51.966;6.292;2022-10-16T01:47:34;18.10;65.50
44537;DHT22;30245;51.966;6.292;2022-10-16T01:50:02;18.10;65.40
44537;DHT22;30245;51.966;6.292;2022-10-16T01:52:31;18.20;65.30
44537;DHT22;30245;51.966;6.292;2022-10-16T01:54:58;18.30;65.20
44537;DHT22;30245;51.966;6.292;2022-10-16T01:57:25;18.30;65.10
44537;DHT22;30245;51.966;6.292;2022-10-16T01:59:55;18.30;65.00
44537;DHT22;30245;51.966;6.292;2022-10-16T02:02:22;18.30;65.20
44537;DHT22;30245;51.966;6.292;2022-10-16T02:04:57;18.20;65.30
44537;DHT22;30245;51.966;6.292;2022-10-16T02:07:23;18.20;65.40
44537;DHT22;30245;51.966;6.292;2022-10-16T02:09:49;18.20;65.40
44537;DHT22;30245;51.966;6.292;2022-10-16T02:12:22;18.20;65.50
44537;DHT22;30245;51.966;6.292;2022-10-16T02:14:49;18.20;65.60
44537;DHT22;30245;51.966;6.292;2022-10-16T02:17:16;18.20;65.50
44537;DHT22;30245;51.966;6.292;2022-10-16T02:19:44;18.30;65.50
44537;DHT22;30245;51.966;6.292;2022-10-16T02:22:32;18.30;65.50
44537;DHT22;30245;51.966;6.292;2022-10-16T02:25:22;18.20;65.50
44537;DHT22;30245;51.966;6.292;2022-10-16T02:28:02;18.30;65.50
44537;DHT22;30245;51.966;6.292;2022-10-16T02:30:42;18.30;65.40
44537;DHT22;30245;51.966;6.292;2022-10-16T02:33:10;18.30;65.40
44537;DHT22;30245;51.966;6.292;2022-10-16T02:35:39;18.30;65.40
44537;DHT22;30245;51.966;6.292;2022-10-16T02:38:06;18.30;65.40
44537;DHT22;30245;51.966;6.292;2022-10-16T02:40:32;18.30;65.60
44537;DHT22;30245;51.966;6.292;2022-10-16T02:42:57;18.30;65.60
44537;DHT22;30245;51.966;6.292;2022-10-16T02:45:24;18.30;65.50
44537;DHT22;30245;51.966;6.292;2022-10-16T02:47:49;18.40;65.60
44537;DHT22;30245;51.966;6.292;2022-10-16T02:50:15;18.30;65.50
44537;DHT22;30245;51.966;6.292;2022-10-16T02:52:41;18.30;65.50
44537;DHT22;30245;51.966;6.292;2022-10-16T02:55:07;18.40;65.60
44537;DHT22;30245;51.966;6.292;2022-10-16T02:57:33;18.40;65.70
44537;DHT22;30245;51.966;6.292;2022-10-16T03:00:00;18.40;65.70
44537;DHT22;30245;51.966;6.292;2022-10-16T03:02:26;18.40;65.70
44537;DHT22;30245;51.966;6.292;2022-10-16T03:04:51;18.40;65.60
44537;DHT22;30245;51.966;6.292;2022-10-16T03:07:17;18.40;65.60
44537;DHT22;30245;51.966;6.292;2022-10-16T03:09:42;18.40;65.50
44537;DHT22;30245;51.966;6.292;2022-10-16T03:12:08;18.40;65.50
44537;DHT22;30245;51.966;6.292;2022-10-16T03:14:34;18.40;65.30
44537;DHT22;30245;51.966;6.292;2022-10-16T03:16:59;18.40;65.40
44537;DHT22;30245;51.966;6.292;2022-10-16T03:19:25;18.40;65.50
44537;DHT22;30245;51.966;6.292;2022-10-16T03:21:50;18.40;66.20
44537;DHT22;30245;51.966;6.292;2022-10-16T03:24:16;18.40;65.40
44537;DHT22;30245;51.966;6.292;2022-10-16T03:26:42;18.50;65.30
44537;DHT22;30245;51.966;6.292;2022-10-16T03:29:07;18.50;65.10
44537;DHT22;30245;51.966;6.292;2022-10-16T03:31:33;18.60;65.00
44537;DHT22;30245;51.966;6.292;2022-10-16T03:33:58;18.50;64.90
44537;DHT22;30245;51.966;6.292;2022-10-16T03:36:24;18.50;65.00
44537;DHT22;30245;51.966;6.292;2022-10-16T03:38:50;18.40;65.20
44537;DHT22;30245;51.966;6.292;2022-10-16T03:41:15;18.40;65.20
44537;DHT22;30245;51.966;6.292;2022-10-16T03:43:41;18.50;65.10
44537;DHT22;30245;51.966;6.292;2022-10-16T03:46:07;18.40;65.00
44537;DHT22;30245;51.966;6.292;2022-10-16T03:48:32;18.40;65.10
44537;DHT22;30245;51.966;6.292;2022-10-16T03:50:58;18.40;65.10
44537;DHT22;30245;51.966;6.292;2022-10-16T03:53:24;18.30;65.20
44537;DHT22;30245;51.966;6.292;2022-10-16T03:55:50;18.30;65.20
44537;DHT22;30245;51.966;6.292;2022-10-16T03:58:16;18.30;65.30
44537;DHT22;30245;51.966;6.292;2022-10-16T04:00:43;18.30;65.30
44537;DHT22;30245;51.966;6.292;2022-10-16T04:03:09;18.40;65.30
44537;DHT22;30245;51.966;6.292;2022-10-16T04:05:35;18.30;65.40
44537;DHT22;30245;51.966;6.292;2022-10-16T04:08:00;18.40;65.30
44537;DHT22;30245;51.966;6.292;2022-10-16T04:10:26;18.30;65.40
44537;DHT22;30245;51.966;6.292;2022-10-16T04:12:51;18.30;65.40
44537;DHT22;30245;51.966;6.292;2022-10-16T04:15:19;18.30;65.30
44537;DHT22;30245;51.966;6.292;2022-10-16T04:17:45;18.30;65.30
44537;DHT22;30245;51.966;6.292;2022-10-16T04:20:11;18.30;65.90
44537;DHT22;30245;51.966;6.292;2022-10-16T04:22:36;18.20;65.50
44537;DHT22;30245;51.966;6.292;2022-10-16T04:25:02;18.20;65.50
44537;DHT22;30245;51.966;6.292;2022-10-16T04:27:28;18.30;65.50
44537;DHT22;30245;51.966;6.292;2022-10-16T04:29:53;18.30;65.50
44537;DHT22;30245;51.966;6.292;2022-10-16T04:32:19;18.20;65.40
44537;DHT22;30245;51.966;6.292;2022-10-16T04:34:44;18.20;65.50
44537;DHT22;30245;51.966;6.292;2022-10-16T04:37:10;18.20;66.10
44537;DHT22;30245;51.966;6.292;2022-10-16T04:39:36;18.20;65.50
44537;DHT22;30245;51.966;6.292;2022-10-16T04:42:01;18.20;65.50
44537;DHT22;30245;51.966;6.292;2022-10-16T04:44:27;18.10;65.50
44537;DHT22;30245;51.966;6.292;2022-10-16T04:46:53;18.20;65.60
44537;DHT22;30245;51.966;6.292;2022-10-16T04:49:19;18.10;65.60
44537;DHT22;30245;51.966;6.292;2022-10-16T04:51:44;18.20;65.70
44537;DHT22;30245;51.966;6.292;2022-10-16T04:54:10;18.20;65.50
44537;DHT22;30245;51.966;6.292;2022-10-16T04:56:36;18.20;65.30
44537;DHT22;30245;51.966;6.292;2022-10-16T04:59:09;18.20;66.00
44537;DHT22;30245;51.966;6.292;2022-10-16T05:01:34;18.20;65.40
44537;DHT22;30245;51.966;6.292;2022-10-16T05:04:00;18.20;65.40
44537;DHT22;30245;51.966;6.292;2022-10-16T05:06:26;18.20;65.40
44537;DHT22;30245;51.966;6.292;2022-10-16T05:08:51;18.20;65.20
44537;DHT22;30245;51.966;6.292;2022-10-16T05:11:17;18.20;65.30
44537;DHT22;30245;51.966;6.292;2022-10-16T05:13:42;18.10;65.40
44537;DHT22;30245;51.966;6.292;2022-10-16T05:16:08;18.10;65.50
44537;DHT22;30245;51.966;6.292;2022-10-16T05:18:33;18.00;65.50
44537;DHT22;30245;51.966;6.292;2022-10-16T05:20:59;18.10;65.60
44537;DHT22;30245;51.966;6.292;2022-10-16T05:23:25;18.10;65.60
44537;DHT22;30245;51.966;6.292;2022-10-16T05:25:58;18.00;65.50
44537;DHT22;30245;51.966;6.292;2022-10-16T05:28:28;18.00;65.60
44537;DHT22;30245;51.966;6.292;2022-10-16T05:30:54;18.00;65.60
44537;DHT22;30245;51.966;6.292;2022-10-16T05:33:21;18.00;65.60
44537;DHT22;30245;51.966;6.292;2022-10-16T05:35:46;18.00;65.50
44537;DHT22;30245;51.966;6.292;2022-10-16T05:38:12;18.10;65.30
44537;DHT22;30245;51.966;6.292;2022-10-16T05:40:38;18.10;65.30
44537;DHT22;30245;51.966;6.292;2022-10-16T05:43:04;18.10;65.30
44537;DHT22;30245;51.966;6.292;2022-10-16T05:45:29;18.10;65.20
44537;DHT22;30245;51.966;6.292;2022-10-16T05:47:55;18.10;65.10
44537;DHT22;30245;51.966;6.292;2022-10-16T05:50:21;18.00;65.20
44537;DHT22;30245;51.966;6.292;2022-10-16T05:52:46;18.00;65.30
44537;DHT22;30245;51.966;6.292;2022-10-16T05:55:12;18.00;65.30
44537;DHT22;30245;51.966;6.292;2022-10-16T05:57:37;18.10;65.30
44537;DHT22;30245;51.966;6.292;2022-10-16T06:00:04;18.00;65.20
44537;DHT22;30245;51.966;6.292;2022-10-16T06:02:30;18.00;65.20
44537;DHT22;30245;51.966;6.292;2022-10-16T06:04:56;18.00;65.20
44537;DHT22;30245;51.966;6.292;2022-10-16T06:07:22;17.90;65.20
44537;DHT22;30245;51.966;6.292;2022-10-16T06:09:52;17.90;65.30
44537;DHT22;30245;51.966;6.292;2022-10-16T06:12:18;17.90;65.30
44537;DHT22;30245;51.966;6.292;2022-10-16T06:14:44;17.90;65.40
44537;DHT22;30245;51.966;6.292;2022-10-16T06:17:10;17.90;65.30
44537;DHT22;30245;51.966;6.292;2022-10-16T06:19:35;17.90;65.40
44537;DHT22;30245;51.966;6.292;2022-10-16T06:22:01;17.90;65.60
44537;DHT22;30245;51.966;6.292;2022-10-16T06:24:27;17.90;65.60
44537;DHT22;30245;51.966;6.292;2022-10-16T06:26:53;17.80;65.70
44537;DHT22;30245;51.966;6.292;2022-10-16T06:29:19;17.80;65.80
44537;DHT22;30245;51.966;6.292;2022-10-16T06:31:44;17.80;65.90
44537;DHT22;30245;51.966;6.292;2022-10-16T06:34:10;17.80;65.90
44537;DHT22;30245;51.966;6.292;2022-10-16T06:36:37;17.80;65.90
44537;DHT22;30245;51.966;6.292;2022-10-16T06:39:04;17.80;65.80
44537;DHT22;30245;51.966;6.292;2022-10-16T06:41:30;17.80;66.00
44537;DHT22;30245;51.966;6.292;2022-10-16T06:43:56;17.80;66.70
44537;DHT22;30245;51.966;6.292;2022-10-16T06:46:23;17.80;66.10
44537;DHT22;30245;51.966;6.292;2022-10-16T06:48:50;17.80;66.10
44537;DHT22;30245;51.966;6.292;2022-10-16T06:51:17;17.80;66.00
44537;DHT22;30245;51.966;6.292;2022-10-16T06:53:48;17.80;66.00
44537;DHT22;30245;51.966;6.292;2022-10-16T06:56:20;17.90;66.00
44537;DHT22;30245;51.966;6.292;2022-10-16T06:58:46;17.90;66.00
44537;DHT22;30245;51.966;6.292;2022-10-16T07:01:13;18.00;66.00
44537;DHT22;30245;51.966;6.292;2022-10-16T07:03:40;18.00;65.90
44537;DHT22;30245;51.966;6.292;2022-10-16T07:06:08;18.10;66.00
44537;DHT22;30245;51.966;6.292;2022-10-16T07:08:36;18.10;65.90
44537;DHT22;30245;51.966;6.292;2022-10-16T07:11:07;18.20;65.80
44537;DHT22;30245;51.966;6.292;2022-10-16T07:13:35;18.20;65.70
44537;DHT22;30245;51.966;6.292;2022-10-16T07:16:05;18.30;65.70
44537;DHT22;30245;51.966;6.292;2022-10-16T07:18:31;18.30;65.70
44537;DHT22;30245;51.966;6.292;2022-10-16T07:21:08;18.40;65.80
44537;DHT22;30245;51.966;6.292;2022-10-16T07:23:34;18.50;65.80
44537;DHT22;30245;51.966;6.292;2022-10-16T07:26:00;18.60;65.70
44537;DHT22;30245;51.966;6.292;2022-10-16T07:28:26;18.60;65.60
44537;DHT22;30245;51.966;6.292;2022-10-16T07:30:52;18.70;65.70
44537;DHT22;30245;51.966;6.292;2022-10-16T07:33:18;18.80;65.60
44537;DHT22;30245;51.966;6.292;2022-10-16T07:35:51;18.80;65.40
44537;DHT22;30245;51.966;6.292;2022-10-16T07:38:17;18.80;65.40
44537;DHT22;30245;51.966;6.292;2022-10-16T07:40:43;18.90;65.40
44537;DHT22;30245;51.966;6.292;2022-10-16T07:43:09;18.90;65.40
44537;DHT22;30245;51.966;6.292;2022-10-16T07:45:34;18.90;65.40
44537;DHT22;30245;51.966;6.292;2022-10-16T07:48:00;19.00;65.20
44537;DHT22;30245;51.966;6.292;2022-10-16T07:50:25;19.00;65.10
44537;DHT22;30245;51.966;6.292;2022-10-16T07:52:52;19.10;65.10
44537;DHT22;30245;51.966;6.292;2022-10-16T07:55:17;19.10;64.90
44537;DHT22;30245;51.966;6.292;2022-10-16T07:57:43;19.10;64.90
44537;DHT22;30245;51.966;6.292;2022-10-16T08:00:09;19.20;64.90
44537;DHT22;30245;51.966;6.292;2022-10-16T08:02:39;19.20;65.00
44537;DHT22;30245;51.966;6.292;2022-10-16T08:05:05;19.30;64.90
44537;DHT22;30245;51.966;6.292;2022-10-16T08:07:31;19.40;64.70
44537;DHT22;30245;51.966;6.292;2022-10-16T08:09:57;19.60;64.60
44537;DHT22;30245;51.966;6.292;2022-10-16T08:12:24;19.70;64.80
44537;DHT22;30245;51.966;6.292;2022-10-16T08:14:50;19.80;63.80
44537;DHT22;30245;51.966;6.292;2022-10-16T08:17:15;20.20;63.60
44537;DHT22;30245;51.966;6.292;2022-10-16T08:19:47;20.50;62.60
44537;DHT22;30245;51.966;6.292;2022-10-16T08:22:15;20.90;62.20
44537;DHT22;30245;51.966;6.292;2022-10-16T08:24:41;21.40;61.50
44537;DHT22;30245;51.966;6.292;2022-10-16T08:27:07;21.80;59.80
44537;DHT22;30245;51.966;6.292;2022-10-16T08:29:34;22.00;58.90
44537;DHT22;30245;51.966;6.292;2022-10-16T08:31:59;22.30;58.60
44537;DHT22;30245;51.966;6.292;2022-10-16T08:34:25;22.70;58.20
44537;DHT22;30245;51.966;6.292;2022-10-16T08:36:53;23.00;56.50
44537;DHT22;30245;51.966;6.292;2022-10-16T08:39:19;23.40;56.40
44537;DHT22;30245;51.966;6.292;2022-10-16T08:47:54;23.90;54.20
44537;DHT22;30245;51.966;6.292;2022-10-16T08:50:25;24.10;54.10
44537;DHT22;30245;51.966;6.292;2022-10-16T08:52:52;24.30;54.30
44537;DHT22;30245;51.966;6.292;2022-10-16T08:58:27;24.60;53.00
44537;DHT22;30245;51.966;6.292;2022-10-16T09:01:02;24.50;53.10
44537;DHT22;30245;51.966;6.292;2022-10-16T09:03:38;24.60;52.80
44537;DHT22;30245;51.966;6.292;2022-10-16T09:06:26;24.80;52.50
44537;DHT22;30245;51.966;6.292;2022-10-16T09:25:30;24.40;51.50
44537;DHT22;30245;51.966;6.292;2022-10-16T09:27:56;24.60;51.70
44537;DHT22;30245;51.966;6.292;2022-10-16T09:30:22;24.80;51.20
44537;DHT22;30245;51.966;6.292;2022-10-16T09:32:52;25.10;50.10
44537;DHT22;30245;51.966;6.292;2022-10-16T09:35:46;25.00;50.20
44537;DHT22;30245;51.966;6.292;2022-10-16T09:38:31;25.40;50.30
44537;DHT22;30245;51.966;6.292;2022-10-16T09:41:02;25.80;49.00
44537;DHT22;30245;51.966;6.292;2022-10-16T09:46:03;26.00;48.60
44537;DHT22;30245;51.966;6.292;2022-10-16T09:48:43;26.10;48.20
44537;DHT22;30245;51.966;6.292;2022-10-16T09:51:22;26.10;47.90
44537;DHT22;30245;51.966;6.292;2022-10-16T09:53:54;26.10;47.40
44537;DHT22;30245;51.966;6.292;2022-10-16T09:56:31;26.20;47.60
44537;DHT22;30245;51.966;6.292;2022-10-16T09:59:00;26.60;48.00
44537;DHT22;30245;51.966;6.292;2022-10-16T10:01:35;26.80;46.70
44537;DHT22;30245;51.966;6.292;2022-10-16T10:04:03;26.90;46.00
44537;DHT22;30245;51.966;6.292;2022-10-16T10:06:33;27.00;46.00
44537;DHT22;30245;51.966;6.292;2022-10-16T10:14:19;27.50;45.20
44537;DHT22;30245;51.966;6.292;2022-10-16T10:16:46;27.60;44.80
44537;DHT22;30245;51.966;6.292;2022-10-16T10:19:21;27.80;44.90
44537;DHT22;30245;51.966;6.292;2022-10-16T10:21:48;27.70;44.10
44537;DHT22;30245;51.966;6.292;2022-10-16T10:24:16;27.50;44.20
44537;DHT22;30245;51.966;6.292;2022-10-16T10:27:13;27.20;44.00
44537;DHT22;30245;51.966;6.292;2022-10-16T10:32:34;26.70;44.70
44537;DHT22;30245;51.966;6.292;2022-10-16T10:38:01;26.80;44.60
44537;DHT22;30245;51.966;6.292;2022-10-16T10:40:50;27.00;44.70
44537;DHT22;30245;51.966;6.292;2022-10-16T10:43:32;27.20;44.90
44537;DHT22;30245;51.966;6.292;2022-10-16T10:46:05;27.60;44.60
44537;DHT22;30245;51.966;6.292;2022-10-16T10:57:03;28.40;43.60
44537;DHT22;30245;51.966;6.292;2022-10-16T11:03:03;28.60;42.30
44537;DHT22;30245;51.966;6.292;2022-10-16T11:05:40;28.40;42.70
44537;DHT22;30245;51.966;6.292;2022-10-16T11:08:09;28.00;42.10
44537;DHT22;30245;51.966;6.292;2022-10-16T11:10:57;27.70;43.00
44537;DHT22;30245;51.966;6.292;2022-10-16T11:13:32;27.60;42.90
44537;DHT22;30245;51.966;6.292;2022-10-16T11:16:04;27.40;42.70
44537;DHT22;30245;51.966;6.292;2022-10-16T11:18:50;27.30;42.90
44537;DHT22;30245;51.966;6.292;2022-10-16T11:21:19;27.00;42.30
44537;DHT22;30245;51.966;6.292;2022-10-16T11:23:51;27.00;42.70
44537;DHT22;30245;51.966;6.292;2022-10-16T11:26:23;27.10;42.50
44537;DHT22;30245;51.966;6.292;2022-10-16T11:28:52;27.00;42.50
44537;DHT22;30245;51.966;6.292;2022-10-16T11:32:27;27.10;42.90
44537;DHT22;30245;51.966;6.292;2022-10-16T11:34:31;27.10;42.30
44537;DHT22;30245;51.966;6.292;2022-10-16T11:37:10;27.30;42.30
44537;DHT22;30245;51.966;6.292;2022-10-16T11:39:38;27.40;41.90
44537;DHT22;30245;51.966;6.292;2022-10-16T11:42:21;27.60;42.00
44537;DHT22;30245;51.966;6.292;2022-10-16T11:47:43;27.70;40.50
44537;DHT22;30245;51.966;6.292;2022-10-16T11:50:34;27.50;40.20
44537;DHT22;30245;51.966;6.292;2022-10-16T11:55:56;27.10;41.20
44537;DHT22;30245;51.966;6.292;2022-10-16T12:08:24;27.60;40.40
44537;DHT22;30245;51.966;6.292;2022-10-16T12:10:51;27.70;39.90
44537;DHT22;30245;51.966;6.292;2022-10-16T12:13:33;27.60;39.30
44537;DHT22;30245;51.966;6.292;2022-10-16T12:18:38;27.50;39.90
44537;DHT22;30245;51.966;6.292;2022-10-16T12:21:05;27.50;40.30
44537;DHT22;30245;51.966;6.292;2022-10-16T12:23:33;27.70;40.00
44537;DHT22;30245;51.966;6.292;2022-10-16T12:26:02;27.80;39.70
44537;DHT22;30245;51.966;6.292;2022-10-16T12:28:30;27.90;39.20
44537;DHT22;30245;51.966;6.292;2022-10-16T12:31:06;27.70;39.00
44537;DHT22;30245;51.966;6.292;2022-10-16T12:36:33;27.50;39.10
44537;DHT22;30245;51.966;6.292;2022-10-16T12:39:00;27.40;39.50
44537;DHT22;30245;51.966;6.292;2022-10-16T12:41:34;27.50;39.40
44537;DHT22;30245;51.966;6.292;2022-10-16T12:44:01;27.60;38.80
44537;DHT22;30245;51.966;6.292;2022-10-16T12:51:53;27.30;39.30
44537;DHT22;30245;51.966;6.292;2022-10-16T12:54:25;27.60;39.40
44537;DHT22;30245;51.966;6.292;2022-10-16T12:57:26;27.80;39.10
44537;DHT22;30245;51.966;6.292;2022-10-16T13:00:13;27.80;38.80
44537;DHT22;30245;51.966;6.292;2022-10-16T13:05:35;27.40;38.70
44537;DHT22;30245;51.966;6.292;2022-10-16T13:19:55;27.80;39.10
44537;DHT22;30245;51.966;6.292;2022-10-16T13:28:08;28.20;39.00
44537;DHT22;30245;51.966;6.292;2022-10-16T13:30:50;28.10;38.70
44537;DHT22;30245;51.966;6.292;2022-10-16T13:33:20;27.90;39.10
44537;DHT22;30245;51.966;6.292;2022-10-16T13:35:51;27.90;39.30
44537;DHT22;30245;51.966;6.292;2022-10-16T13:38:23;28.10;39.30
44537;DHT22;30245;51.966;6.292;2022-10-16T13:43:29;28.40;39.10
44537;DHT22;30245;51.966;6.292;2022-10-16T13:46:05;28.50;38.80
44537;DHT22;30245;51.966;6.292;2022-10-16T13:48:33;28.80;38.70
44537;DHT22;30245;51.966;6.292;2022-10-16T13:53:36;28.80;38.20
44537;DHT22;30245;51.966;6.292;2022-10-16T13:56:03;28.70;38.20
44537;DHT22;30245;51.966;6.292;2022-10-16T13:58:29;28.80;37.80
44537;DHT22;30245;51.966;6.292;2022-10-16T14:00:58;28.70;37.40
44537;DHT22;30245;51.966;6.292;2022-10-16T14:03:25;28.50;37.30
44537;DHT22;30245;51.966;6.292;2022-10-16T14:06:15;28.50;37.10
44537;DHT22;30245;51.966;6.292;2022-10-16T14:08:44;28.40;37.60
44537;DHT22;30245;51.966;6.292;2022-10-16T14:11:11;28.40;37.70
44537;DHT22;30245;51.966;6.292;2022-10-16T14:13:45;28.80;37.40
44537;DHT22;30245;51.966;6.292;2022-10-16T14:16:20;29.10;37.60
44537;DHT22;30245;51.966;6.292;2022-10-16T14:18:56;29.40;36.90
44537;DHT22;30245;51.966;6.292;2022-10-16T14:21:22;29.30;36.60
44537;DHT22;30245;51.966;6.292;2022-10-16T14:23:48;29.10;37.00
44537;DHT22;30245;51.966;6.292;2022-10-16T14:26:15;29.30;37.40
44537;DHT22;30245;51.966;6.292;2022-10-16T14:28:42;29.70;36.90
44537;DHT22;30245;51.966;6.292;2022-10-16T14:33:47;30.50;36.40
44537;DHT22;30245;51.966;6.292;2022-10-16T14:36:14;30.60;36.40
44537;DHT22;30245;51.966;6.292;2022-10-16T14:38:48;30.50;35.90
44537;DHT22;30245;51.966;6.292;2022-10-16T14:41:15;30.70;35.90
44537;DHT22;30245;51.966;6.292;2022-10-16T14:43:42;30.90;35.60
44537;DHT22;30245;51.966;6.292;2022-10-16T14:46:22;31.00;35.40
44537;DHT22;30245;51.966;6.292;2022-10-16T14:49:04;30.90;35.40
44537;DHT22;30245;51.966;6.292;2022-10-16T14:51:37;30.70;35.50
44537;DHT22;30245;51.966;6.292;2022-10-16T14:54:04;30.40;35.70
44537;DHT22;30245;51.966;6.292;2022-10-16T14:56:41;30.00;35.90
44537;DHT22;30245;51.966;6.292;2022-10-16T14:59:08;29.40;36.40
44537;DHT22;30245;51.966;6.292;2022-10-16T15:01:38;28.90;37.30
44537;DHT22;30245;51.966;6.292;2022-10-16T15:04:04;28.60;37.60
44537;DHT22;30245;51.966;6.292;2022-10-16T15:06:29;28.20;37.80
44537;DHT22;30245;51.966;6.292;2022-10-16T15:08:55;27.80;38.20
44537;DHT22;30245;51.966;6.292;2022-10-16T15:11:20;27.60;38.40
44537;DHT22;30245;51.966;6.292;2022-10-16T15:13:46;27.50;38.60
44537;DHT22;30245;51.966;6.292;2022-10-16T15:16:14;27.40;38.70
44537;DHT22;30245;51.966;6.292;2022-10-16T15:18:40;27.20;38.80
44537;DHT22;30245;51.966;6.292;2022-10-16T15:21:06;27.10;38.90
44537;DHT22;30245;51.966;6.292;2022-10-16T15:23:31;27.10;38.90
44537;DHT22;30245;51.966;6.292;2022-10-16T15:25:57;27.00;39.10
44537;DHT22;30245;51.966;6.292;2022-10-16T15:28:24;26.90;39.10
44537;DHT22;30245;51.966;6.292;2022-10-16T15:30:52;26.90;39.30
44537;DHT22;30245;51.966;6.292;2022-10-16T15:33:20;26.70;39.50
44537;DHT22;30245;51.966;6.292;2022-10-16T15:35:47;26.70;39.70
44537;DHT22;30245;51.966;6.292;2022-10-16T15:38:13;26.60;39.90
44537;DHT22;30245;51.966;6.292;2022-10-16T15:40:39;26.50;40.00
44537;DHT22;30245;51.966;6.292;2022-10-16T15:43:05;26.30;40.20
44537;DHT22;30245;51.966;6.292;2022-10-16T15:45:31;26.20;40.40
44537;DHT22;30245;51.966;6.292;2022-10-16T15:47:56;26.10;40.60
44537;DHT22;30245;51.966;6.292;2022-10-16T15:50:22;26.00;40.80
44537;DHT22;30245;51.966;6.292;2022-10-16T15:52:48;26.00;41.00
44537;DHT22;30245;51.966;6.292;2022-10-16T15:55:14;25.90;41.30
44537;DHT22;30245;51.966;6.292;2022-10-16T15:57:40;25.80;41.50
44537;DHT22;30245;51.966;6.292;2022-10-16T16:00:10;25.70;41.60
44537;DHT22;30245;51.966;6.292;2022-10-16T16:02:36;25.60;41.80
44537;DHT22;30245;51.966;6.292;2022-10-16T16:05:02;25.60;42.00
44537;DHT22;30245;51.966;6.292;2022-10-16T16:07:29;25.50;42.10
44537;DHT22;30245;51.966;6.292;2022-10-16T16:09:57;25.50;42.50
44537;DHT22;30245;51.966;6.292;2022-10-16T16:12:22;25.40;42.70
44537;DHT22;30245;51.966;6.292;2022-10-16T16:14:48;25.30;43.00
44537;DHT22;30245;51.966;6.292;2022-10-16T16:17:14;25.20;43.20
44537;DHT22;30245;51.966;6.292;2022-10-16T16:19:40;25.10;43.40
44537;DHT22;30245;51.966;6.292;2022-10-16T16:22:05;25.00;43.70
44537;DHT22;30245;51.966;6.292;2022-10-16T16:24:31;24.90;43.90
44537;DHT22;30245;51.966;6.292;2022-10-16T16:26:57;24.90;44.10
44537;DHT22;30245;51.966;6.292;2022-10-16T16:29:22;24.80;44.90
44537;DHT22;30245;51.966;6.292;2022-10-16T16:31:48;24.80;44.40
44537;DHT22;30245;51.966;6.292;2022-10-16T16:34:14;24.70;44.60
44537;DHT22;30245;51.966;6.292;2022-10-16T16:36:40;24.60;44.80
44537;DHT22;30245;51.966;6.292;2022-10-16T16:39:06;24.50;45.00
44537;DHT22;30245;51.966;6.292;2022-10-16T16:41:33;24.50;45.30
44537;DHT22;30245;51.966;6.292;2022-10-16T16:44:04;24.50;45.50
44537;DHT22;30245;51.966;6.292;2022-10-16T16:46:31;24.40;45.70
44537;DHT22;30245;51.966;6.292;2022-10-16T16:48:58;24.30;45.90
44537;DHT22;30245;51.966;6.292;2022-10-16T16:51:23;24.20;46.10
44537;DHT22;30245;51.966;6.292;2022-10-16T16:53:51;24.20;46.30
44537;DHT22;30245;51.966;6.292;2022-10-16T16:56:17;24.10;46.50
44537;DHT22;30245;51.966;6.292;2022-10-16T16:58:48;24.10;46.60
44537;DHT22;30245;51.966;6.292;2022-10-16T17:01:14;24.00;46.80
44537;DHT22;30245;51.966;6.292;2022-10-16T17:03:42;23.90;46.90
44537;DHT22;30245;51.966;6.292;2022-10-16T17:06:10;23.90;47.10
44537;DHT22;30245;51.966;6.292;2022-10-16T17:08:37;23.80;47.40
44537;DHT22;30245;51.966;6.292;2022-10-16T17:11:04;23.70;47.50
44537;DHT22;30245;51.966;6.292;2022-10-16T17:13:32;23.60;47.60
44537;DHT22;30245;51.966;6.292;2022-10-16T17:16:00;23.60;47.80
44537;DHT22;30245;51.966;6.292;2022-10-16T17:18:26;23.50;47.90
44537;DHT22;30245;51.966;6.292;2022-10-16T17:20:52;23.50;48.00
44537;DHT22;30245;51.966;6.292;2022-10-16T17:23:18;23.50;48.20
44537;DHT22;30245;51.966;6.292;2022-10-16T17:25:45;23.40;48.20
44537;DHT22;30245;51.966;6.292;2022-10-16T17:28:12;23.40;48.40
44537;DHT22;30245;51.966;6.292;2022-10-16T17:30:39;23.30;48.50
44537;DHT22;30245;51.966;6.292;2022-10-16T17:33:05;23.20;48.60
44537;DHT22;30245;51.966;6.292;2022-10-16T17:35:45;23.20;48.70
44537;DHT22;30245;51.966;6.292;2022-10-16T17:38:12;23.10;48.80